createdAt,value
2022-08-25T00:01:49.988Z,4.20
2022-08-25T00:04:18.334Z,5.10
2022-08-25T00:06:46.314Z,4.43
2022-08-25T00:09:15.452Z,4.20
2022-08-25T00:11:43.132Z,4.22
2022-08-25T00:14:13.782Z,4.22
2022-08-25T00:16:40.913Z,4.85
2022-08-25T00:19:09.786Z,4.75
2022-08-25T00:21:37.421Z,4.93
2022-08-25T00:24:04.388Z,4.47
2022-08-25T00:26:31.421Z,4.72
2022-08-25T00:29:01.583Z,4.18
2022-08-25T00:31:37.821Z,5.13
2022-08-25T00:34:07.647Z,4.85
2022-08-25T00:36:35.292Z,5.00
2022-08-25T00:39:02.113Z,4.60
2022-08-25T00:41:28.912Z,5.13
2022-08-25T00:43:58.641Z,5.10
2022-08-25T00:46:28.401Z,5.57
2022-08-25T00:48:59.666Z,5.55
2022-08-25T00:51:30.984Z,5.15
2022-08-25T00:53:58.336Z,5.35
2022-08-25T00:56:25.823Z,5.93
2022-08-25T00:58:52.996Z,5.65
2022-08-25T01:01:20.173Z,5.85
2022-08-25T01:03:46.895Z,5.68
2022-08-25T01:06:15.182Z,5.72
2022-08-25T01:08:42.129Z,5.72
2022-08-25T01:11:10.822Z,5.57
2022-08-25T01:13:39.808Z,5.40
2022-08-25T01:16:06.905Z,5.90
2022-08-25T01:18:44.019Z,6.03
2022-08-25T01:21:12.165Z,5.57
2022-08-25T01:23:39.054Z,6.35
2022-08-25T01:26:08.748Z,6.18
2022-08-25T01:28:36.121Z,5.85
2022-08-25T01:31:03.332Z,6.43
2022-08-25T01:33:30.084Z,6.43
2022-08-25T01:35:56.870Z,6.43
2022-08-25T01:38:25.033Z,6.53
2022-08-25T01:40:51.877Z,6.57
2022-08-25T01:43:26.964Z,6.65
2022-08-25T01:48:20.588Z,6.90
2022-08-25T01:50:47.317Z,7.28
2022-08-25T01:53:18.902Z,7.47
2022-08-25T01:55:53.080Z,7.18
2022-08-25T01:58:23.243Z,7.15
2022-08-25T02:00:51.398Z,6.97
2022-08-25T02:03:19.889Z,7.63
2022-08-25T02:05:47.961Z,7.38
2022-08-25T02:08:15.411Z,7.28
2022-08-25T02:10:42.109Z,8.40
2022-08-25T02:13:10.392Z,7.28
2022-08-25T02:15:41.081Z,7.18
2022-08-25T02:18:07.922Z,8.07
2022-08-25T02:20:34.716Z,7.82
2022-08-25T02:23:01.433Z,7.43
2022-08-25T02:25:28.130Z,8.10
2022-08-25T02:27:54.882Z,7.63
2022-08-25T02:30:23.462Z,7.15
2022-08-25T02:32:50.180Z,7.53
2022-08-25T02:35:17.355Z,8.15
2022-08-25T02:37:44.061Z,7.45
2022-08-25T02:40:11.756Z,7.25
2022-08-25T02:42:38.575Z,7.53
2022-08-25T02:45:09.749Z,8.18
2022-08-25T02:47:37.886Z,8.35
2022-08-25T02:50:04.953Z,7.47
2022-08-25T02:52:31.666Z,7.55
2022-08-25T02:54:58.432Z,7.63
2022-08-25T02:57:25.185Z,7.63
2022-08-25T02:59:52.058Z,7.88
2022-08-25T03:02:19.200Z,6.95
2022-08-25T03:04:47.626Z,7.95
2022-08-25T03:07:14.405Z,7.38
2022-08-25T03:09:42.100Z,7.45
2022-08-25T03:12:09.620Z,7.70
2022-08-25T03:14:36.352Z,7.53
2022-08-25T03:17:04.309Z,7.88
2022-08-25T03:19:35.762Z,7.18
2022-08-25T03:22:03.971Z,7.97
2022-08-25T03:24:30.781Z,8.20
2022-08-25T03:26:57.650Z,7.45
2022-08-25T03:29:25.902Z,7.72
2022-08-25T03:31:53.542Z,8.00
2022-08-25T03:34:21.800Z,7.57
2022-08-25T03:36:50.250Z,8.40
2022-08-25T03:39:18.986Z,8.02
2022-08-25T03:41:47.176Z,8.70
2022-08-25T03:44:14.296Z,8.95
2022-08-25T03:46:43.904Z,8.30
2022-08-25T03:49:12.267Z,8.82
2022-08-25T03:51:40.737Z,8.25
2022-08-25T03:54:08.009Z,8.15
2022-08-25T03:56:36.541Z,8.70
2022-08-25T03:59:03.610Z,8.50
2022-08-25T04:01:30.367Z,8.80
2022-08-25T04:03:57.246Z,8.65
2022-08-25T04:06:23.945Z,7.80
2022-08-25T04:08:52.719Z,9.02
2022-08-25T04:11:21.823Z,8.48
2022-08-25T04:13:51.941Z,8.57
2022-08-25T04:16:20.720Z,8.38
2022-08-25T04:18:48.655Z,9.00
2022-08-25T04:21:16.442Z,8.65
2022-08-25T04:23:44.462Z,8.48
2022-08-25T04:26:12.316Z,7.72
2022-08-25T04:28:39.361Z,8.43
2022-08-25T04:31:08.938Z,8.85
2022-08-25T04:33:35.967Z,8.25
2022-08-25T04:36:03.215Z,7.85
2022-08-25T04:38:30.836Z,7.72
2022-08-25T04:40:57.955Z,7.88
2022-08-25T04:43:24.775Z,8.48
2022-08-25T04:45:52.354Z,9.05
2022-08-25T04:48:21.145Z,8.38
2022-08-25T04:50:48.035Z,8.30
2022-08-25T04:53:15.218Z,8.15
2022-08-25T04:55:42.731Z,8.18
2022-08-25T04:58:14.594Z,8.52
2022-08-25T05:00:43.983Z,8.50
2022-08-25T05:03:10.777Z,7.90
2022-08-25T05:05:39.114Z,8.63
2022-08-25T05:08:06.644Z,7.38
2022-08-25T05:10:34.000Z,8.10
2022-08-25T05:13:01.069Z,7.40
2022-08-25T05:15:46.457Z,8.57
2022-08-25T05:18:13.458Z,7.57
2022-08-25T05:20:41.700Z,8.95
2022-08-25T05:23:08.376Z,8.25
2022-08-25T05:25:35.144Z,7.47
2022-08-25T05:28:02.164Z,8.20
2022-08-25T05:30:29.000Z,8.30
2022-08-25T05:32:55.885Z,7.72
2022-08-25T05:35:22.616Z,8.48
2022-08-25T05:37:50.680Z,7.70
2022-08-25T05:40:17.610Z,7.88
2022-08-25T05:42:44.439Z,8.55
2022-08-25T05:45:15.858Z,8.30
2022-08-25T05:47:47.256Z,7.97
2022-08-25T05:50:13.982Z,8.75
2022-08-25T05:52:40.881Z,9.32
2022-08-25T05:55:09.798Z,8.07
2022-08-25T05:57:36.758Z,8.68
2022-08-25T06:00:05.298Z,9.02
2022-08-25T06:02:41.426Z,8.20
2022-08-25T06:05:08.506Z,8.10
2022-08-25T06:07:36.389Z,8.80
2022-08-25T06:10:03.497Z,7.97
2022-08-25T06:12:33.633Z,8.02
2022-08-25T06:15:00.349Z,8.35
2022-08-25T06:17:27.180Z,7.75
2022-08-25T06:19:54.997Z,7.15
2022-08-25T06:22:22.473Z,7.70
2022-08-25T06:24:49.209Z,7.63
2022-08-25T06:27:15.898Z,7.40
2022-08-25T06:29:44.202Z,7.57
2022-08-25T06:32:11.233Z,7.68
2022-08-25T06:34:38.054Z,7.63
2022-08-25T06:37:05.473Z,7.55
2022-08-25T06:39:32.493Z,7.72
2022-08-25T06:41:59.194Z,6.90
2022-08-25T06:44:27.628Z,6.85
2022-08-25T06:46:55.786Z,6.18
2022-08-25T06:49:22.621Z,6.65
2022-08-25T06:51:50.642Z,6.55
2022-08-25T06:54:17.417Z,6.20
2022-08-25T06:56:44.205Z,6.82
2022-08-25T06:59:11.189Z,6.05
2022-08-25T07:01:38.169Z,6.00
2022-08-25T07:04:11.861Z,6.13
2022-08-25T07:06:40.865Z,5.15
2022-08-25T07:09:08.522Z,5.32
2022-08-25T07:11:35.538Z,5.60
2022-08-25T07:14:03.097Z,5.68
2022-08-25T07:16:31.483Z,6.13
2022-08-25T07:18:59.120Z,6.18
2022-08-25T07:21:33.487Z,5.82
2022-08-25T07:24:05.000Z,5.70
2022-08-25T07:26:38.305Z,5.53
2022-08-25T07:29:09.548Z,4.47
2022-08-25T07:31:36.456Z,5.72
2022-08-25T07:34:23.159Z,6.20
2022-08-25T07:36:51.338Z,5.05
2022-08-25T07:39:18.337Z,5.07
2022-08-25T07:41:51.925Z,5.30
2022-08-25T07:44:19.676Z,4.80
2022-08-25T07:46:46.404Z,5.18
2022-08-25T07:49:16.707Z,4.43
2022-08-25T07:52:04.159Z,4.90
2022-08-25T07:54:34.238Z,5.07
2022-08-25T07:57:01.690Z,5.07
2022-08-25T07:59:28.407Z,5.07
2022-08-25T08:01:55.213Z,4.68
2022-08-25T08:04:22.344Z,4.38
2022-08-25T08:06:52.294Z,4.47
2022-08-25T08:09:18.983Z,3.55
2022-08-25T08:11:54.026Z,4.50
2022-08-25T08:14:21.553Z,4.18
2022-08-25T08:16:48.307Z,4.05
2022-08-25T08:19:15.155Z,3.88
2022-08-25T08:21:42.287Z,3.83
2022-08-25T08:24:24.801Z,3.70
2022-08-25T08:26:59.300Z,3.58
2022-08-25T08:29:26.398Z,3.40
2022-08-25T08:31:53.438Z,2.92
2022-08-25T08:34:20.318Z,3.50
2022-08-25T08:36:52.037Z,2.63
2022-08-25T08:39:18.843Z,3.35
2022-08-25T08:42:18.981Z,2.50
2022-08-25T08:44:58.114Z,2.55
2022-08-25T08:47:36.814Z,2.90
2022-08-25T08:50:06.913Z,2.40
2022-08-25T08:52:39.243Z,2.70
2022-08-25T08:55:11.506Z,2.72
2022-08-25T08:57:44.931Z,2.78
2022-08-25T09:00:12.849Z,2.28
2022-08-25T09:02:51.541Z,2.83
2022-08-25T09:05:21.169Z,2.70
2022-08-25T09:08:08.058Z,3.65
2022-08-25T09:10:48.841Z,3.10
2022-08-25T09:13:32.342Z,3.30
2022-08-25T09:16:31.899Z,2.88
2022-08-25T09:19:11.859Z,2.90
2022-08-25T09:21:54.947Z,2.33
2022-08-25T09:24:30.948Z,3.13
2022-08-25T09:27:06.952Z,3.08
2022-08-25T09:29:44.713Z,2.85
2022-08-25T09:32:11.488Z,2.75
2022-08-25T09:34:41.914Z,2.42
2022-08-25T09:37:09.223Z,2.65
2022-08-25T09:39:36.550Z,2.40
2022-08-25T09:42:03.619Z,2.72
2022-08-25T09:44:34.025Z,2.10
2022-08-25T09:47:04.934Z,2.53
2022-08-25T09:49:37.703Z,2.00
2022-08-25T09:52:26.981Z,2.70
2022-08-25T09:54:54.546Z,2.35
2022-08-25T09:57:30.296Z,2.53
2022-08-25T09:59:57.769Z,2.33
2022-08-25T10:02:28.495Z,2.42
2022-08-25T10:04:55.944Z,2.10
2022-08-25T10:07:26.742Z,2.15
2022-08-25T10:09:55.034Z,2.30
2022-08-25T10:12:27.969Z,2.28
2022-08-25T10:14:55.330Z,2.25
2022-08-25T10:17:29.399Z,1.95
2022-08-25T10:20:15.276Z,2.38
2022-08-25T10:25:11.380Z,1.80
2022-08-25T10:27:44.603Z,1.80
2022-08-25T10:30:16.937Z,1.80
2022-08-25T10:33:13.528Z,2.00
2022-08-25T10:35:55.187Z,2.17
2022-08-25T10:38:36.264Z,2.22
2022-08-25T10:41:16.618Z,2.15
2022-08-25T10:43:47.647Z,1.77
2022-08-25T10:46:18.757Z,1.92
2022-08-25T10:48:58.574Z,1.77
2022-08-25T10:51:51.097Z,1.90
2022-08-25T10:54:31.458Z,2.20
2022-08-25T10:57:07.051Z,2.08
2022-08-25T10:59:46.761Z,1.85
2022-08-25T11:02:43.491Z,1.77
2022-08-25T11:05:14.044Z,1.50
2022-08-25T11:07:44.509Z,1.60
2022-08-25T11:10:15.427Z,1.20
2022-08-25T11:12:44.450Z,1.67
2022-08-25T11:15:15.001Z,1.75
2022-08-25T11:17:50.341Z,1.77
2022-08-25T11:20:26.807Z,1.60
2022-08-25T11:23:04.574Z,1.63
2022-08-25T11:25:35.167Z,1.20
2022-08-25T11:28:08.384Z,1.58
2022-08-25T11:30:35.179Z,1.40
2022-08-25T11:33:01.981Z,1.48
2022-08-25T11:35:34.026Z,1.50
2022-08-25T11:38:12.408Z,1.60
2022-08-25T11:40:50.075Z,1.50
2022-08-25T11:43:31.493Z,1.80
2022-08-25T11:46:10.357Z,1.15
2022-08-25T11:48:46.522Z,1.88
2022-08-25T11:51:33.732Z,1.55
2022-08-25T11:54:25.233Z,1.30
2022-08-25T11:57:04.856Z,1.40
2022-08-25T12:00:01.043Z,1.20
2022-08-25T12:02:31.397Z,1.40
2022-08-25T12:04:58.306Z,1.70
2022-08-25T12:07:29.535Z,1.50
2022-08-25T12:10:18.551Z,1.30
2022-08-25T12:13:04.855Z,1.30
2022-08-25T12:15:56.557Z,1.50
2022-08-25T12:18:45.629Z,1.42
2022-08-25T12:21:16.041Z,1.38
2022-08-25T12:23:51.578Z,1.35
2022-08-25T12:26:38.617Z,1.35
2022-08-25T12:29:07.709Z,1.30
2022-08-25T12:31:49.235Z,1.60
2022-08-25T12:34:27.744Z,1.30
2022-08-25T12:36:59.695Z,1.60
2022-08-25T12:39:32.206Z,1.40
2022-08-25T12:47:27.236Z,1.48
2022-08-25T12:49:54.757Z,1.40
2022-08-25T12:52:27.790Z,1.27
2022-08-25T12:54:59.539Z,1.40
2022-08-25T12:57:34.371Z,1.50
2022-08-25T13:00:07.334Z,1.45
2022-08-25T13:02:52.028Z,1.52
2022-08-25T13:08:21.837Z,1.30
2022-08-25T13:10:51.173Z,1.50
2022-08-25T13:13:24.471Z,1.30
2022-08-25T13:15:59.500Z,1.30
2022-08-25T13:18:28.844Z,1.20
2022-08-25T13:21:03.320Z,1.40
2022-08-25T13:23:31.602Z,1.40
2022-08-25T13:25:59.896Z,1.50
2022-08-25T13:28:29.895Z,1.33
2022-08-25T13:31:00.229Z,1.30
2022-08-25T13:33:27.918Z,1.30
2022-08-25T13:36:15.747Z,1.58
2022-08-25T13:38:45.797Z,1.42
2022-08-25T13:41:20.268Z,1.48
2022-08-25T13:43:47.906Z,1.30
2022-08-25T13:46:19.718Z,1.52
2022-08-25T13:48:49.367Z,1.30
2022-08-25T13:51:23.650Z,1.38
2022-08-25T13:53:53.830Z,1.40
2022-08-25T13:56:38.523Z,1.77
2022-08-25T13:59:20.975Z,1.50
2022-08-25T14:01:50.081Z,1.52
2022-08-25T14:04:31.873Z,2.15
2022-08-25T14:07:26.609Z,1.70
2022-08-25T14:10:03.814Z,2.03
2022-08-25T14:12:40.010Z,2.75
2022-08-25T14:15:15.067Z,2.60
2022-08-25T14:17:44.043Z,2.63
2022-08-25T14:20:25.682Z,2.80
2022-08-25T14:22:55.106Z,2.45
2022-08-25T14:25:25.318Z,2.30
2022-08-25T14:28:13.765Z,2.67
2022-08-25T14:30:46.085Z,2.97
2022-08-25T14:33:14.317Z,2.92
2022-08-25T14:35:42.315Z,2.60
2022-08-25T14:38:11.068Z,2.75
2022-08-25T14:40:38.642Z,2.90
2022-08-25T14:43:09.923Z,2.60
2022-08-25T14:45:39.502Z,3.00
2022-08-25T14:48:10.240Z,2.88
2022-08-25T14:50:37.802Z,2.67
2022-08-25T14:53:08.014Z,2.67
2022-08-25T14:55:35.047Z,2.95
2022-08-25T14:58:02.250Z,2.70
2022-08-25T15:00:31.146Z,2.67
2022-08-25T15:02:58.075Z,2.67
2022-08-25T15:05:28.379Z,2.47
2022-08-25T15:08:14.367Z,2.63
2022-08-25T15:10:41.702Z,2.80
2022-08-25T15:13:10.221Z,2.65
2022-08-25T15:15:52.442Z,2.65
2022-08-25T15:18:20.516Z,2.20
2022-08-25T15:20:47.348Z,2.65
2022-08-25T15:23:17.093Z,2.13
2022-08-25T15:25:45.863Z,2.53
2022-08-25T15:28:12.817Z,2.97
2022-08-25T15:30:45.862Z,2.42
2022-08-25T15:33:12.835Z,2.83
2022-08-25T15:35:39.953Z,2.50
2022-08-25T15:38:06.848Z,3.42
2022-08-25T15:40:37.598Z,6.88
2022-08-25T15:43:04.841Z,5.88
2022-08-25T15:45:32.129Z,7.57
2022-08-25T15:48:01.089Z,8.55
2022-08-25T15:50:28.006Z,8.48
2022-08-25T15:52:54.758Z,8.48
2022-08-25T15:55:21.548Z,7.00
2022-08-25T15:57:49.662Z,9.88
2022-08-25T16:00:18.066Z,10.30
2022-08-25T16:02:45.398Z,13.07
2022-08-25T16:05:16.252Z,14.90
2022-08-25T16:07:45.893Z,16.08
2022-08-25T16:10:13.614Z,16.00
2022-08-25T16:12:42.689Z,16.23
2022-08-25T16:15:12.253Z,16.88
2022-08-25T16:17:40.676Z,16.27
2022-08-25T16:20:12.643Z,16.90
2022-08-25T16:22:42.984Z,18.75
2022-08-25T16:25:11.396Z,18.20
2022-08-25T16:27:39.201Z,19.00
2022-08-25T16:30:07.344Z,20.48
2022-08-25T16:32:34.764Z,20.25
2022-08-25T16:35:02.517Z,18.50
2022-08-25T16:37:29.865Z,20.27
2022-08-25T16:39:58.434Z,19.25
2022-08-25T16:42:26.518Z,19.73
2022-08-25T16:44:53.912Z,17.83
2022-08-25T16:47:25.180Z,19.50
2022-08-25T16:49:53.797Z,19.38
2022-08-25T16:52:39.279Z,18.45
2022-08-25T16:55:15.936Z,17.85
2022-08-25T16:57:46.042Z,18.08
2022-08-25T17:00:17.654Z,19.27
2022-08-25T17:02:44.553Z,18.65
2022-08-25T17:05:12.473Z,16.63
2022-08-25T17:07:39.448Z,18.00
2022-08-25T17:10:07.632Z,16.20
2022-08-25T17:12:40.881Z,17.08
2022-08-25T17:15:08.080Z,16.55
2022-08-25T17:17:36.483Z,17.50
2022-08-25T17:20:04.881Z,17.15
2022-08-25T17:22:31.755Z,18.45
2022-08-25T17:25:00.730Z,15.63
2022-08-25T17:27:28.165Z,15.85
2022-08-25T17:29:56.869Z,14.45
2022-08-25T17:32:30.230Z,15.80
2022-08-25T17:34:57.529Z,16.90
2022-08-25T17:37:24.644Z,17.13
2022-08-25T17:40:02.504Z,16.38
2022-08-25T17:42:31.354Z,17.13
2022-08-25T17:45:00.087Z,16.75
2022-08-25T17:47:27.054Z,16.50
2022-08-25T17:49:54.272Z,16.73
2022-08-25T17:52:25.464Z,14.63
2022-08-25T17:54:52.893Z,16.48
2022-08-25T17:57:19.834Z,15.80
2022-08-25T17:59:48.198Z,16.65
2022-08-25T18:02:16.500Z,15.93
2022-08-25T18:04:43.913Z,16.50
2022-08-25T18:07:10.850Z,17.13
2022-08-25T18:09:37.566Z,17.52
2022-08-25T18:12:04.904Z,19.15
2022-08-25T18:14:31.667Z,19.10
2022-08-25T18:17:00.135Z,18.25
2022-08-25T18:19:28.246Z,17.15
2022-08-25T18:21:55.186Z,18.45
2022-08-25T18:24:23.708Z,18.00
2022-08-25T18:26:50.597Z,17.35
2022-08-25T18:29:17.683Z,19.35
2022-08-25T18:31:46.506Z,18.20
2022-08-25T18:34:15.507Z,19.95
2022-08-25T18:36:45.022Z,18.60
2022-08-25T18:39:34.595Z,19.13
2022-08-25T18:42:02.042Z,20.15
2022-08-25T18:44:29.370Z,20.50
2022-08-25T18:46:56.805Z,20.10
2022-08-25T18:49:26.910Z,19.90
2022-08-25T18:51:56.909Z,19.45
2022-08-25T18:54:23.962Z,19.92
2022-08-25T18:56:51.862Z,19.73
2022-08-25T18:59:19.438Z,20.00
2022-08-25T19:01:46.197Z,19.48
2022-08-25T19:04:14.977Z,19.20
2022-08-25T19:06:43.886Z,17.08
2022-08-25T19:09:12.089Z,17.20
2022-08-25T19:11:38.844Z,16.20
2022-08-25T19:14:12.041Z,15.45
2022-08-25T19:16:41.275Z,14.63
2022-08-25T19:19:12.495Z,14.02
2022-08-25T19:21:39.803Z,13.40
2022-08-25T19:24:07.621Z,14.05
2022-08-25T19:26:37.005Z,13.38
2022-08-25T19:29:05.694Z,11.93
2022-08-25T19:31:36.255Z,9.65
2022-08-25T19:34:03.756Z,10.77
2022-08-25T19:36:30.851Z,8.82
2022-08-25T19:39:00.210Z,9.40
2022-08-25T19:41:28.542Z,9.80
2022-08-25T19:43:57.694Z,9.40
2022-08-25T19:46:32.507Z,8.75
2022-08-25T19:49:06.294Z,8.82
2022-08-25T19:51:34.324Z,9.13
2022-08-25T19:54:02.839Z,7.78
2022-08-25T19:56:30.030Z,8.68
2022-08-25T19:58:58.846Z,8.40
2022-08-25T20:01:25.665Z,9.18
2022-08-25T20:03:52.482Z,8.07
2022-08-25T20:06:19.515Z,8.02
2022-08-25T20:08:46.339Z,8.63
2022-08-25T20:11:13.826Z,8.45
2022-08-25T20:13:40.589Z,8.02
2022-08-25T20:16:08.837Z,8.73
2022-08-25T20:18:36.314Z,7.88
2022-08-25T20:21:03.011Z,8.48
2022-08-25T20:23:49.549Z,7.80
2022-08-25T20:28:42.869Z,8.50
2022-08-25T20:31:12.974Z,8.63
2022-08-25T20:33:40.040Z,8.35
2022-08-25T20:36:07.448Z,8.93
2022-08-25T20:38:34.261Z,8.25
2022-08-25T20:41:01.441Z,9.30
2022-08-25T20:43:29.720Z,9.40
2022-08-25T20:46:00.389Z,8.35
2022-08-25T20:48:29.193Z,8.07
2022-08-25T20:50:57.428Z,8.98
2022-08-25T20:53:25.484Z,8.68
2022-08-25T20:55:52.203Z,9.48
2022-08-25T20:58:19.134Z,8.63
2022-08-25T21:00:46.168Z,7.18
2022-08-25T21:03:12.963Z,6.40
2022-08-25T21:05:41.516Z,7.13
2022-08-25T21:08:09.134Z,6.30
2022-08-25T21:10:37.860Z,6.85
2022-08-25T21:13:04.614Z,6.13
2022-08-25T21:15:31.589Z,7.32
2022-08-25T21:17:58.374Z,6.43
2022-08-25T21:20:26.331Z,6.20
2022-08-25T21:22:54.523Z,6.82
2022-08-25T21:25:21.735Z,6.40
2022-08-25T21:27:49.239Z,6.45
2022-08-25T21:30:16.301Z,6.93
2022-08-25T21:32:53.544Z,7.18
2022-08-25T21:35:21.508Z,6.72
2022-08-25T21:37:53.519Z,5.68
2022-08-25T21:40:22.774Z,4.70
2022-08-25T21:42:49.741Z,5.78
2022-08-25T21:45:16.792Z,4.07
2022-08-25T21:47:47.851Z,3.40
2022-08-25T21:50:14.595Z,2.92
2022-08-25T21:52:42.387Z,3.08
2022-08-25T21:55:16.120Z,2.35
2022-08-25T21:57:44.535Z,2.00
2022-08-25T22:00:14.058Z,2.40
2022-08-25T22:02:43.800Z,1.60
2022-08-25T22:05:11.494Z,1.90
2022-08-25T22:07:41.761Z,1.67
2022-08-25T22:10:16.541Z,1.63
2022-08-25T22:12:45.979Z,1.73
2022-08-25T22:15:15.566Z,1.52
2022-08-25T22:17:42.574Z,1.80
2022-08-25T22:20:13.294Z,1.60
2022-08-25T22:22:39.994Z,1.33
2022-08-25T22:25:07.249Z,1.58
2022-08-25T22:27:35.058Z,1.40
2022-08-25T22:30:04.476Z,1.30
2022-08-25T22:32:31.998Z,1.55
2022-08-25T22:34:58.728Z,1.63
2022-08-25T22:37:25.621Z,1.30
2022-08-25T22:39:52.371Z,1.35
2022-08-25T22:42:19.440Z,1.33
2022-08-25T22:44:53.894Z,1.33
2022-08-25T22:47:22.073Z,0.80
2022-08-25T22:49:48.906Z,1.23
2022-08-25T22:52:15.629Z,1.30
2022-08-25T22:54:42.448Z,1.48
2022-08-25T22:57:09.884Z,1.23
2022-08-25T22:59:36.906Z,1.67
2022-08-25T23:02:04.105Z,1.10
2022-08-25T23:04:32.177Z,1.00
2022-08-25T23:06:58.892Z,1.38
2022-08-25T23:09:25.617Z,1.73
2022-08-25T23:11:52.306Z,1.30
2022-08-25T23:14:19.307Z,1.23
2022-08-25T23:16:46.194Z,1.30
2022-08-25T23:19:14.343Z,0.93
2022-08-25T23:22:01.941Z,1.20
2022-08-25T23:24:30.664Z,1.63
2022-08-25T23:26:58.638Z,1.67
2022-08-25T23:29:25.369Z,1.30
2022-08-25T23:31:53.520Z,1.38
2022-08-25T23:34:21.578Z,1.27
2022-08-25T23:36:50.324Z,1.23
2022-08-25T23:39:17.186Z,0.95
2022-08-25T23:41:44.389Z,1.23
2022-08-25T23:44:11.571Z,1.20
2022-08-25T23:46:39.551Z,1.15
2022-08-25T23:49:08.213Z,1.02
2022-08-25T23:51:38.063Z,0.90
2022-08-25T23:54:09.540Z,1.45
2022-08-25T23:56:38.115Z,1.17
2022-08-25T23:59:11.534Z,1.08
